createdAt,value
2022-08-12T00:00:53.441Z,71.63
2022-08-12T00:03:40.699Z,71.93
2022-08-12T00:06:27.179Z,72.48
2022-08-12T00:09:12.779Z,72.46
2022-08-12T00:11:59.394Z,72.47
2022-08-12T00:14:44.842Z,72.45
2022-08-12T00:17:31.477Z,72.53
2022-08-12T00:20:18.564Z,72.36
2022-08-12T00:23:04.893Z,72.32
2022-08-12T00:26:21.426Z,72.08
2022-08-12T00:29:04.338Z,72.28
2022-08-12T00:31:50.054Z,72.95
2022-08-12T00:34:36.228Z,72.96
2022-08-12T00:37:23.574Z,73.27
2022-08-12T00:40:11.116Z,73.10
2022-08-12T00:42:40.026Z,73.63
2022-08-12T00:45:09.408Z,74.29
2022-08-12T00:47:39.025Z,74.48
2022-08-12T00:50:08.913Z,74.08
2022-08-12T00:52:38.873Z,73.95
2022-08-12T00:55:07.795Z,73.95
2022-08-12T00:57:37.657Z,73.93
2022-08-12T01:00:09.731Z,73.78
2022-08-12T01:02:40.849Z,73.79
2022-08-12T01:05:29.297Z,73.88
2022-08-12T01:08:16.367Z,74.03
2022-08-12T01:11:04.152Z,74.24
2022-08-12T01:13:34.956Z,74.30
2022-08-12T01:16:07.927Z,74.29
2022-08-12T01:18:38.634Z,74.36
2022-08-12T01:21:13.313Z,74.32
2022-08-12T01:23:58.630Z,74.36
2022-08-12T01:26:29.882Z,74.29
2022-08-12T01:29:00.274Z,74.24
2022-08-12T01:31:30.595Z,74.26
2022-08-12T01:34:05.848Z,74.13
2022-08-12T01:36:57.852Z,73.85
2022-08-12T01:39:31.489Z,73.89
2022-08-12T01:42:05.606Z,73.97
2022-08-12T01:44:35.014Z,73.95
2022-08-12T01:47:12.312Z,73.89
2022-08-12T01:49:55.097Z,73.77
2022-08-12T01:52:32.180Z,74.03
2022-08-12T01:55:01.255Z,74.81
2022-08-12T01:57:59.208Z,74.89
2022-08-12T02:00:43.375Z,74.96
2022-08-12T02:04:03.672Z,74.70
2022-08-12T02:06:52.876Z,74.73
2022-08-12T02:09:44.807Z,74.85
2022-08-12T02:12:24.788Z,74.78
2022-08-12T02:15:06.288Z,74.84
2022-08-12T02:17:55.370Z,74.72
2022-08-12T02:20:50.933Z,74.96
2022-08-12T02:23:27.170Z,74.87
2022-08-12T02:26:00.554Z,75.41
2022-08-12T02:28:29.328Z,75.75
2022-08-12T02:31:04.945Z,75.68
2022-08-12T02:33:33.915Z,75.40
2022-08-12T02:36:03.200Z,75.59
2022-08-12T02:38:31.788Z,75.76
2022-08-12T02:41:03.685Z,75.98
2022-08-12T02:43:41.569Z,75.77
2022-08-12T02:46:15.354Z,75.79
2022-08-12T02:48:49.321Z,75.75
2022-08-12T02:51:20.536Z,75.81
2022-08-12T02:54:03.215Z,75.79
2022-08-12T02:56:37.807Z,76.12
2022-08-12T02:59:11.990Z,76.09
2022-08-12T03:01:47.635Z,75.89
2022-08-12T03:04:27.013Z,75.98
2022-08-12T03:07:03.909Z,76.10
2022-08-12T03:09:52.405Z,76.09
2022-08-12T03:12:26.593Z,76.23
2022-08-12T03:15:06.642Z,76.23
2022-08-12T03:17:46.392Z,76.26
2022-08-12T03:20:41.001Z,76.49
2022-08-12T03:23:19.426Z,76.68
2022-08-12T03:25:59.042Z,76.59
2022-08-12T03:28:44.602Z,76.63
2022-08-12T03:31:12.776Z,76.50
2022-08-12T03:33:45.663Z,76.85
2022-08-12T03:36:35.928Z,76.87
2022-08-12T03:39:35.416Z,77.03
2022-08-12T03:42:17.098Z,77.05
2022-08-12T03:45:11.841Z,77.44
2022-08-12T03:48:04.728Z,77.24
2022-08-12T03:50:52.299Z,77.29
2022-08-12T03:53:45.300Z,77.17
2022-08-12T03:56:31.536Z,77.33
2022-08-12T03:59:19.234Z,77.36
2022-08-12T04:01:52.637Z,77.58
2022-08-12T04:04:22.692Z,77.41
2022-08-12T04:06:52.673Z,77.41
2022-08-12T04:09:23.232Z,77.46
2022-08-12T04:12:09.498Z,77.41
2022-08-12T04:14:38.031Z,77.34
2022-08-12T04:17:06.376Z,77.26
2022-08-12T04:19:34.699Z,77.34
2022-08-12T04:22:04.258Z,77.40
2022-08-12T04:24:36.151Z,77.43
2022-08-12T04:27:07.384Z,77.39
2022-08-12T04:30:16.685Z,77.79
2022-08-12T04:32:25.681Z,77.84
2022-08-12T04:34:55.345Z,78.01
2022-08-12T04:37:24.911Z,78.18
2022-08-12T04:39:54.709Z,78.14
2022-08-12T04:42:23.940Z,78.08
2022-08-12T04:44:52.123Z,78.27
2022-08-12T04:47:21.910Z,78.56
2022-08-12T04:49:49.999Z,78.50
2022-08-12T04:52:18.972Z,78.73
2022-08-12T04:54:49.152Z,79.16
2022-08-12T04:57:17.061Z,78.38
2022-08-12T04:59:48.300Z,78.87
2022-08-12T05:02:20.590Z,78.85
2022-08-12T05:04:51.916Z,79.14
2022-08-12T05:07:20.565Z,78.93
2022-08-12T05:09:59.300Z,78.93
2022-08-12T05:12:33.962Z,79.33
2022-08-12T05:15:02.313Z,79.38
2022-08-12T05:17:30.395Z,79.36
2022-08-12T05:19:59.885Z,79.02
2022-08-12T05:22:28.925Z,79.01
2022-08-12T05:24:58.352Z,79.41
2022-08-12T05:27:28.367Z,79.45
2022-08-12T05:30:07.512Z,79.33
2022-08-12T05:32:37.795Z,79.32
2022-08-12T05:35:08.277Z,79.20
2022-08-12T05:37:36.753Z,79.70
2022-08-12T05:40:11.193Z,79.34
2022-08-12T05:42:40.059Z,79.18
2022-08-12T05:45:12.063Z,78.96
2022-08-12T05:47:54.925Z,78.97
2022-08-12T05:50:23.178Z,78.88
2022-08-12T05:52:53.827Z,78.87
2022-08-12T05:55:27.000Z,77.63
2022-08-12T05:57:58.544Z,76.09
2022-08-12T06:00:29.412Z,76.12
2022-08-12T06:03:01.220Z,76.74
2022-08-12T06:05:30.635Z,77.07
2022-08-12T06:08:02.889Z,76.99
2022-08-12T06:10:33.277Z,77.08
2022-08-12T06:13:02.583Z,76.99
2022-08-12T06:15:31.765Z,76.90
2022-08-12T06:18:11.459Z,76.96
2022-08-12T06:20:44.835Z,76.65
2022-08-12T06:23:15.414Z,76.59
2022-08-12T06:25:46.674Z,76.64
2022-08-12T06:28:17.817Z,76.57
2022-08-12T06:31:02.635Z,76.60
2022-08-12T06:34:00.797Z,76.65
2022-08-12T06:36:29.325Z,76.58
2022-08-12T06:38:58.035Z,76.79
2022-08-12T06:42:28.515Z,77.16
2022-08-12T06:44:34.194Z,76.69
2022-08-12T06:47:02.421Z,76.73
2022-08-12T06:49:35.573Z,76.57
2022-08-12T06:52:04.596Z,76.54
2022-08-12T06:54:34.752Z,76.44
2022-08-12T06:58:05.186Z,76.13
2022-08-12T06:59:52.373Z,75.86
2022-08-12T07:02:22.949Z,75.92
2022-08-12T07:04:52.741Z,75.90
2022-08-12T07:07:21.397Z,75.45
2022-08-12T07:10:04.298Z,75.49
2022-08-12T07:12:37.059Z,75.26
2022-08-12T07:15:06.271Z,75.07
2022-08-12T07:17:38.036Z,74.85
2022-08-12T07:20:20.233Z,74.77
2022-08-12T07:22:57.740Z,74.38
2022-08-12T07:25:40.312Z,74.21
2022-08-12T07:28:16.905Z,73.92
2022-08-12T07:30:48.653Z,73.96
2022-08-12T07:33:17.976Z,73.93
2022-08-12T07:35:48.454Z,73.49
2022-08-12T07:38:29.868Z,73.47
2022-08-12T07:41:03.687Z,73.45
2022-08-12T07:43:35.544Z,73.29
2022-08-12T07:46:05.779Z,73.03
2022-08-12T07:48:38.380Z,72.90
2022-08-12T07:51:07.196Z,72.51
2022-08-12T07:53:47.719Z,72.22
2022-08-12T07:56:25.197Z,71.89
2022-08-12T07:58:55.277Z,71.54
2022-08-12T08:01:23.931Z,71.27
2022-08-12T08:04:15.165Z,71.14
2022-08-12T08:06:49.117Z,70.51
2022-08-12T08:09:22.443Z,70.29
2022-08-12T08:12:08.572Z,70.23
2022-08-12T08:14:38.097Z,69.62
2022-08-12T08:17:08.046Z,69.33
2022-08-12T08:19:48.717Z,69.05
2022-08-12T08:22:41.648Z,68.73
2022-08-12T08:25:36.235Z,68.29
2022-08-12T08:28:03.037Z,66.06
2022-08-12T08:30:42.579Z,61.16
2022-08-12T08:33:22.622Z,57.08
2022-08-12T08:36:02.032Z,53.19
2022-08-12T08:38:33.153Z,50.76
2022-08-12T08:42:15.897Z,48.55
2022-08-12T08:44:11.038Z,45.76
2022-08-12T08:46:43.859Z,44.49
2022-08-12T08:49:12.729Z,42.54
2022-08-12T08:51:41.620Z,40.99
2022-08-12T08:54:15.546Z,39.36
2022-08-12T08:56:46.462Z,38.98
2022-08-12T08:59:15.412Z,38.76
2022-08-12T09:01:45.358Z,37.86
2022-08-12T09:05:08.783Z,37.83
2022-08-12T09:07:17.094Z,37.87
2022-08-12T09:10:02.487Z,39.18
2022-08-12T09:12:54.102Z,40.00
2022-08-12T09:15:35.716Z,41.28
2022-08-12T09:21:03.909Z,42.41
2022-08-12T09:23:58.601Z,43.23
2022-08-12T09:26:28.114Z,43.77
2022-08-12T09:28:57.103Z,43.72
2022-08-12T09:32:04.382Z,43.95
2022-08-12T09:34:27.351Z,43.73
2022-08-12T09:37:18.763Z,43.34
2022-08-12T09:40:05.114Z,43.68
2022-08-12T09:43:15.477Z,43.84
2022-08-12T09:46:19.726Z,43.23
2022-08-12T09:48:39.266Z,42.95
2022-08-12T09:51:17.070Z,43.05
2022-08-12T09:54:08.478Z,42.80
2022-08-12T09:57:01.876Z,42.77
2022-08-12T10:00:15.573Z,42.60
2022-08-12T10:02:44.844Z,42.81
2022-08-12T10:05:06.523Z,42.52
2022-08-12T10:07:42.786Z,42.07
2022-08-12T10:10:22.335Z,42.14
2022-08-12T10:13:34.068Z,42.45
2022-08-12T10:16:05.605Z,42.55
2022-08-12T10:18:35.419Z,42.42
2022-08-12T10:21:07.668Z,42.07
2022-08-12T10:23:40.033Z,41.88
2022-08-12T10:26:36.814Z,41.42
2022-08-12T10:30:02.968Z,41.45
2022-08-12T10:32:21.631Z,40.94
2022-08-12T10:35:05.319Z,41.78
2022-08-12T10:38:34.201Z,42.10
2022-08-12T10:40:33.266Z,42.02
2022-08-12T10:43:19.431Z,42.15
2022-08-12T10:45:49.753Z,42.16
2022-08-12T10:48:33.414Z,42.44
2022-08-12T10:51:51.550Z,42.59
2022-08-12T10:54:00.655Z,42.40
2022-08-12T10:56:34.180Z,42.69
2022-08-12T10:59:03.944Z,42.21
2022-08-12T11:04:19.466Z,42.60
2022-08-12T11:04:41.358Z,42.13
2022-08-12T11:08:35.053Z,41.88
2022-08-12T11:10:01.544Z,41.70
2022-08-12T11:12:58.516Z,41.75
2022-08-12T11:15:32.890Z,41.90
2022-08-12T11:18:18.051Z,42.22
2022-08-12T11:20:48.728Z,41.64
2022-08-12T11:23:25.847Z,42.26
2022-08-12T11:26:07.626Z,42.17
2022-08-12T11:28:38.748Z,41.95
2022-08-12T11:31:11.879Z,42.17
2022-08-12T11:34:04.920Z,41.95
2022-08-12T11:36:29.447Z,41.80
2022-08-12T11:39:04.247Z,41.36
2022-08-12T11:41:34.812Z,41.43
2022-08-12T11:44:35.651Z,40.97
2022-08-12T11:46:54.749Z,40.87
2022-08-12T11:49:30.847Z,40.76
2022-08-12T11:52:02.439Z,40.48
2022-08-12T11:54:31.099Z,40.20
2022-08-12T11:57:02.269Z,39.72
2022-08-12T12:02:21.861Z,39.97
2022-08-12T12:04:52.752Z,39.97
2022-08-12T12:08:36.168Z,39.83
2022-08-12T12:10:12.959Z,39.83
2022-08-12T12:12:49.529Z,39.65
2022-08-12T12:15:25.350Z,39.61
2022-08-12T12:18:22.514Z,39.46
2022-08-12T12:21:00.666Z,39.24
2022-08-12T12:23:29.539Z,39.12
2022-08-12T12:26:07.412Z,39.05
2022-08-12T12:28:39.687Z,38.95
2022-08-12T12:31:14.877Z,39.22
2022-08-12T12:33:59.046Z,39.06
2022-08-12T12:36:30.039Z,39.15
2022-08-12T12:39:00.196Z,38.55
2022-08-12T12:42:54.338Z,38.68
2022-08-12T12:44:26.042Z,38.82
2022-08-12T12:47:00.857Z,39.14
2022-08-12T12:49:30.206Z,39.11
2022-08-12T12:52:18.571Z,39.31
2022-08-12T12:54:52.978Z,39.78
2022-08-12T12:57:36.466Z,40.06
2022-08-12T13:00:16.905Z,40.03
2022-08-12T13:02:54.069Z,40.30
2022-08-12T13:05:27.913Z,40.28
2022-08-12T13:08:01.063Z,39.81
2022-08-12T13:10:36.953Z,39.72
2022-08-12T13:14:06.948Z,39.55
2022-08-12T13:15:59.091Z,39.77
2022-08-12T13:18:31.712Z,39.48
2022-08-12T13:20:59.983Z,39.19
2022-08-12T13:23:36.326Z,39.44
2022-08-12T13:26:14.669Z,39.60
2022-08-12T13:28:49.682Z,39.47
2022-08-12T13:31:24.920Z,39.75
2022-08-12T13:34:32.000Z,39.20
2022-08-12T13:36:47.447Z,39.14
2022-08-12T13:39:16.346Z,39.12
2022-08-12T13:41:44.997Z,38.91
2022-08-12T13:44:14.484Z,39.05
2022-08-12T13:46:42.707Z,39.38
2022-08-12T13:49:17.690Z,39.56
2022-08-12T13:52:02.452Z,38.81
2022-08-12T13:54:32.978Z,38.90
2022-08-12T13:57:01.441Z,38.88
2022-08-12T13:59:30.884Z,38.70
2022-08-12T14:02:18.475Z,38.62
2022-08-12T14:04:56.520Z,39.00
2022-08-12T14:07:26.020Z,38.93
2022-08-12T14:10:16.472Z,39.13
2022-08-12T14:12:54.008Z,38.96
2022-08-12T14:15:34.970Z,38.74
2022-08-12T14:18:08.518Z,38.56
2022-08-12T14:20:37.929Z,38.86
2022-08-12T14:24:01.180Z,38.98
2022-08-12T14:25:59.005Z,39.07
2022-08-12T14:28:28.182Z,39.26
2022-08-12T14:31:01.391Z,39.32
2022-08-12T14:33:43.956Z,39.26
2022-08-12T14:36:14.180Z,39.45
2022-08-12T14:38:44.362Z,39.67
2022-08-12T14:41:16.141Z,39.85
2022-08-12T14:44:04.764Z,39.73
2022-08-12T14:46:32.346Z,39.68
2022-08-12T14:49:27.637Z,39.54
2022-08-12T14:53:11.300Z,38.81
2022-08-12T14:57:56.442Z,38.43
2022-08-12T16:06:11.810Z,39.65
2022-08-12T16:08:36.920Z,39.92
2022-08-12T16:11:14.918Z,40.12
2022-08-12T16:13:46.922Z,40.29
2022-08-12T16:16:23.357Z,40.35
2022-08-12T16:18:56.107Z,40.75
2022-08-12T16:21:51.427Z,40.64
2022-08-12T16:24:14.474Z,40.43
2022-08-12T16:26:44.993Z,40.47
2022-08-12T16:29:15.098Z,40.56
2022-08-12T16:31:43.960Z,40.52
2022-08-12T16:34:26.094Z,39.89
2022-08-12T16:37:10.070Z,39.77
2022-08-12T16:40:00.628Z,39.57
2022-08-12T16:42:28.224Z,39.24
2022-08-12T16:44:57.005Z,39.91
2022-08-12T16:47:27.221Z,40.33
2022-08-12T16:49:57.881Z,40.56
2022-08-12T16:52:27.969Z,41.03
2022-08-12T16:54:56.478Z,41.01
2022-08-12T16:57:43.066Z,41.38
2022-08-12T17:00:14.421Z,41.25
2022-08-12T17:02:44.261Z,41.51
2022-08-12T17:05:19.328Z,41.55
2022-08-12T17:07:52.900Z,41.34
2022-08-12T17:10:36.003Z,40.95
2022-08-12T17:13:10.179Z,41.27
2022-08-12T17:15:56.850Z,40.99
2022-08-12T17:18:43.052Z,40.75
2022-08-12T17:21:17.307Z,40.59
2022-08-12T17:23:53.318Z,40.44
2022-08-12T17:26:28.393Z,40.36
2022-08-12T17:29:00.695Z,40.57
2022-08-12T17:31:59.403Z,40.58
2022-08-12T17:34:33.372Z,40.97
2022-08-12T17:37:02.771Z,40.98
2022-08-12T17:40:12.799Z,40.50
2022-08-12T17:42:32.831Z,40.83
2022-08-12T17:45:15.592Z,40.95
2022-08-12T17:48:02.319Z,41.35
2022-08-12T17:50:35.960Z,41.52
2022-08-12T17:53:04.751Z,41.98
2022-08-12T17:55:43.547Z,42.10
2022-08-12T17:58:35.494Z,42.48
2022-08-12T18:01:11.152Z,42.50
2022-08-12T18:04:04.522Z,42.62
2022-08-12T18:06:30.467Z,43.09
2022-08-12T18:09:09.485Z,43.19
2022-08-12T18:12:06.158Z,43.30
2022-08-12T18:14:37.106Z,43.23
2022-08-12T18:17:08.777Z,43.60
2022-08-12T18:20:06.320Z,43.54
2022-08-12T18:22:30.459Z,43.66
2022-08-12T18:25:02.540Z,43.81
2022-08-12T18:27:44.091Z,43.35
2022-08-12T18:30:21.016Z,43.74
2022-08-12T18:33:03.829Z,43.52
2022-08-12T18:35:46.976Z,43.59
2022-08-12T18:38:21.921Z,43.72
2022-08-12T18:41:09.637Z,44.15
2022-08-12T18:43:58.872Z,44.42
2022-08-12T18:46:34.997Z,44.31
2022-08-12T18:49:18.023Z,44.50
2022-08-12T18:51:55.224Z,44.44
2022-08-12T18:54:27.076Z,44.34
2022-08-12T18:56:59.406Z,44.56
2022-08-12T19:00:02.236Z,44.44
2022-08-12T19:02:22.468Z,44.77
2022-08-12T19:04:53.559Z,45.00
2022-08-12T19:07:24.732Z,45.04
2022-08-12T19:09:57.845Z,45.44
2022-08-12T19:12:57.244Z,45.58
2022-08-12T19:15:30.086Z,45.57
2022-08-12T19:18:02.830Z,46.05
2022-08-12T19:20:34.088Z,45.97
2022-08-12T19:23:07.907Z,46.65
2022-08-12T19:26:00.047Z,46.24
2022-08-12T19:28:34.505Z,46.59
2022-08-12T19:31:56.719Z,46.56
2022-08-12T19:37:20.243Z,47.07
2022-08-12T19:40:10.160Z,47.39
2022-08-12T19:42:44.958Z,47.57
2022-08-12T19:45:17.625Z,48.25
2022-08-12T19:47:47.119Z,48.66
2022-08-12T19:50:19.643Z,48.63
2022-08-12T19:52:53.413Z,48.87
2022-08-12T19:55:23.610Z,48.72
2022-08-12T19:58:01.826Z,48.95
2022-08-12T20:00:34.728Z,49.10
2022-08-12T20:03:06.409Z,49.37
2022-08-12T20:06:05.028Z,49.76
2022-08-12T20:08:34.065Z,49.46
2022-08-12T20:12:15.110Z,49.93
2022-08-12T20:14:00.384Z,50.07
2022-08-12T20:16:57.828Z,49.68
2022-08-12T20:19:28.642Z,49.92
2022-08-12T20:22:24.270Z,50.19
2022-08-12T20:24:57.971Z,50.44
2022-08-12T20:28:03.045Z,50.31
2022-08-12T20:30:20.297Z,50.69
2022-08-12T20:32:56.072Z,50.83
2022-08-12T20:35:39.061Z,51.02
2022-08-12T20:38:26.328Z,51.31
2022-08-12T20:40:55.724Z,51.15
2022-08-12T20:43:28.056Z,51.53
2022-08-12T20:45:59.373Z,51.37
2022-08-12T20:48:29.456Z,51.62
2022-08-12T20:51:04.696Z,51.62
2022-08-12T20:53:57.776Z,52.20
2022-08-12T20:56:30.797Z,52.31
2022-08-12T20:59:02.739Z,52.44
2022-08-12T21:01:46.111Z,52.72
2022-08-12T21:04:33.133Z,52.74
2022-08-12T21:07:09.486Z,53.00
2022-08-12T21:09:42.180Z,52.86
2022-08-12T21:12:28.650Z,53.10
2022-08-12T21:15:18.182Z,53.38
2022-08-12T21:18:11.499Z,53.51
2022-08-12T21:20:49.695Z,53.78
2022-08-12T21:23:21.434Z,54.17
2022-08-12T21:25:51.171Z,54.17
2022-08-12T21:28:21.186Z,54.41
2022-08-12T21:32:34.634Z,54.54
2022-08-12T21:33:58.881Z,54.48
2022-08-12T21:36:34.638Z,54.52
2022-08-12T21:39:19.090Z,54.73
2022-08-12T21:41:52.085Z,54.75
2022-08-12T21:44:24.305Z,55.07
2022-08-12T21:47:20.000Z,54.85
2022-08-12T21:49:55.301Z,55.09
2022-08-12T21:52:34.759Z,55.00
2022-08-12T21:55:08.464Z,55.42
2022-08-12T21:57:51.286Z,55.40
2022-08-12T22:00:32.835Z,55.90
2022-08-12T22:03:55.019Z,55.98
2022-08-12T22:06:31.259Z,56.19
2022-08-12T22:09:16.892Z,56.27
2022-08-12T22:11:58.643Z,56.22
2022-08-12T22:14:28.765Z,56.45
2022-08-12T22:17:00.373Z,56.66
2022-08-12T22:19:29.089Z,56.89
2022-08-12T22:22:04.815Z,56.91
2022-08-12T22:24:33.258Z,56.89
2022-08-12T22:27:08.069Z,57.02
2022-08-12T22:30:16.471Z,56.86
2022-08-12T22:32:49.727Z,57.19
2022-08-12T22:35:55.465Z,57.30
2022-08-12T22:38:24.069Z,57.56
2022-08-12T22:40:55.106Z,57.83
2022-08-12T22:43:58.955Z,57.85
2022-08-12T22:46:52.079Z,57.94
2022-08-12T22:49:36.572Z,57.92
2022-08-12T22:52:08.612Z,57.79
2022-08-12T22:54:37.908Z,57.89
2022-08-12T22:57:48.994Z,57.84
2022-08-12T23:00:27.025Z,57.73
2022-08-12T23:02:58.298Z,57.54
2022-08-12T23:05:56.826Z,57.74
2022-08-12T23:08:22.467Z,57.74
2022-08-12T23:10:50.841Z,58.06
2022-08-12T23:13:43.838Z,58.23
2022-08-12T23:16:28.104Z,57.95
2022-08-12T23:18:59.593Z,57.94
2022-08-12T23:21:40.485Z,58.06
2022-08-12T23:24:16.938Z,58.03
2022-08-12T23:27:04.636Z,58.04
2022-08-12T23:29:43.155Z,57.88
2022-08-12T23:32:35.241Z,58.06
2022-08-12T23:35:03.948Z,58.18
2022-08-12T23:37:46.613Z,58.09
2022-08-12T23:40:18.007Z,58.18
2022-08-12T23:42:48.648Z,58.32
2022-08-12T23:45:20.147Z,58.37
2022-08-12T23:48:02.832Z,58.44
2022-08-12T23:50:34.166Z,58.29
2022-08-12T23:53:06.734Z,58.44
2022-08-12T23:55:50.744Z,58.44
2022-08-12T23:58:22.768Z,58.51
